sensor_id;sensor_type;location;lat;lon;timestamp;P1;durP1;ratioP1;P2;durP2;ratioP2
40252;SDS011;25972;51.854;4.534;2022-11-20T00:00:51;19.23;;;8.77;;
40252;SDS011;25972;51.854;4.534;2022-11-20T00:03:17;17.50;;;7.53;;
40252;SDS011;25972;51.854;4.534;2022-11-20T00:05:43;16.60;;;6.73;;
40252;SDS011;25972;51.854;4.534;2022-11-20T00:08:09;16.87;;;6.67;;
40252;SDS011;25972;51.854;4.534;2022-11-20T00:10:38;14.83;;;6.70;;
40252;SDS011;25972;51.854;4.534;2022-11-20T00:13:05;17.70;;;7.27;;
40252;SDS011;25972;51.854;4.534;2022-11-20T00:15:31;14.50;;;5.93;;
40252;SDS011;25972;51.854;4.534;2022-11-20T00:17:57;14.90;;;6.80;;
40252;SDS011;25972;51.854;4.534;2022-11-20T00:20:23;15.10;;;6.83;;
40252;SDS011;25972;51.854;4.534;2022-11-20T00:22:49;13.60;;;6.23;;
40252;SDS011;25972;51.854;4.534;2022-11-20T00:25:15;16.40;;;6.97;;
40252;SDS011;25972;51.854;4.534;2022-11-20T00:27:41;16.73;;;7.23;;
40252;SDS011;25972;51.854;4.534;2022-11-20T00:30:07;16.33;;;6.90;;
40252;SDS011;25972;51.854;4.534;2022-11-20T00:32:33;16.37;;;6.57;;
40252;SDS011;25972;51.854;4.534;2022-11-20T00:34:59;15.40;;;6.60;;
40252;SDS011;25972;51.854;4.534;2022-11-20T00:37:26;15.30;;;7.07;;
40252;SDS011;25972;51.854;4.534;2022-11-20T00:39:51;15.20;;;7.13;;
40252;SDS011;25972;51.854;4.534;2022-11-20T00:42:17;14.23;;;6.07;;
40252;SDS011;25972;51.854;4.534;2022-11-20T00:44:43;13.13;;;6.23;;
40252;SDS011;25972;51.854;4.534;2022-11-20T00:47:09;18.27;;;4.77;;
40252;SDS011;25972;51.854;4.534;2022-11-20T00:49:35;16.20;;;6.97;;
40252;SDS011;25972;51.854;4.534;2022-11-20T00:52:00;14.10;;;6.07;;
40252;SDS011;25972;51.854;4.534;2022-11-20T00:54:26;16.27;;;7.33;;
40252;SDS011;25972;51.854;4.534;2022-11-20T00:56:52;16.77;;;7.17;;
40252;SDS011;25972;51.854;4.534;2022-11-20T00:59:18;14.90;;;6.63;;
40252;SDS011;25972;51.854;4.534;2022-11-20T01:01:44;18.03;;;7.00;;
40252;SDS011;25972;51.854;4.534;2022-11-20T01:04:10;17.17;;;7.23;;
40252;SDS011;25972;51.854;4.534;2022-11-20T01:06:37;14.90;;;6.47;;
40252;SDS011;25972;51.854;4.534;2022-11-20T01:09:05;17.83;;;6.90;;
40252;SDS011;25972;51.854;4.534;2022-11-20T01:11:37;15.23;;;6.53;;
40252;SDS011;25972;51.854;4.534;2022-11-20T01:14:05;19.20;;;6.13;;
40252;SDS011;25972;51.854;4.534;2022-11-20T01:16:36;17.03;;;6.60;;
40252;SDS011;25972;51.854;4.534;2022-11-20T01:19:09;14.87;;;5.67;;
40252;SDS011;25972;51.854;4.534;2022-11-20T01:21:38;14.97;;;6.70;;
40252;SDS011;25972;51.854;4.534;2022-11-20T01:24:06;13.77;;;5.90;;
40252;SDS011;25972;51.854;4.534;2022-11-20T01:26:34;13.80;;;6.73;;
40252;SDS011;25972;51.854;4.534;2022-11-20T01:29:01;22.67;;;7.77;;
40252;SDS011;25972;51.854;4.534;2022-11-20T01:31:30;15.67;;;6.63;;
40252;SDS011;25972;51.854;4.534;2022-11-20T01:34:04;11.70;;;5.90;;
40252;SDS011;25972;51.854;4.534;2022-11-20T01:36:31;16.97;;;6.03;;
40252;SDS011;25972;51.854;4.534;2022-11-20T01:38:59;17.73;;;7.30;;
40252;SDS011;25972;51.854;4.534;2022-11-20T01:41:27;15.73;;;6.80;;
40252;SDS011;25972;51.854;4.534;2022-11-20T01:44:18;16.83;;;6.40;;
40252;SDS011;25972;51.854;4.534;2022-11-20T01:49:29;17.93;;;7.37;;
40252;SDS011;25972;51.854;4.534;2022-11-20T01:52:16;14.43;;;6.40;;
40252;SDS011;25972;51.854;4.534;2022-11-20T01:57:24;15.27;;;6.37;;
40252;SDS011;25972;51.854;4.534;2022-11-20T01:59:54;16.00;;;6.67;;
40252;SDS011;25972;51.854;4.534;2022-11-20T02:02:24;17.37;;;6.53;;
40252;SDS011;25972;51.854;4.534;2022-11-20T02:04:51;14.77;;;6.17;;
40252;SDS011;25972;51.854;4.534;2022-11-20T02:07:22;16.47;;;7.13;;
40252;SDS011;25972;51.854;4.534;2022-11-20T02:09:49;14.33;;;6.27;;
40252;SDS011;25972;51.854;4.534;2022-11-20T02:12:16;15.30;;;6.37;;
40252;SDS011;25972;51.854;4.534;2022-11-20T02:15:00;14.97;;;5.70;;
40252;SDS011;25972;51.854;4.534;2022-11-20T02:17:26;18.83;;;6.70;;
40252;SDS011;25972;51.854;4.534;2022-11-20T02:19:53;13.73;;;6.87;;
40252;SDS011;25972;51.854;4.534;2022-11-20T02:22:20;19.03;;;7.00;;
40252;SDS011;25972;51.854;4.534;2022-11-20T02:24:56;17.80;;;6.83;;
40252;SDS011;25972;51.854;4.534;2022-11-20T02:27:24;15.60;;;6.53;;
40252;SDS011;25972;51.854;4.534;2022-11-20T02:29:52;14.60;;;6.47;;
40252;SDS011;25972;51.854;4.534;2022-11-20T02:34:52;16.40;;;7.10;;
40252;SDS011;25972;51.854;4.534;2022-11-20T02:37:18;16.00;;;7.27;;
40252;SDS011;25972;51.854;4.534;2022-11-20T02:39:49;13.80;;;7.03;;
40252;SDS011;25972;51.854;4.534;2022-11-20T02:42:16;14.13;;;6.80;;
40252;SDS011;25972;51.854;4.534;2022-11-20T02:44:42;16.57;;;7.53;;
40252;SDS011;25972;51.854;4.534;2022-11-20T02:47:08;23.47;;;7.70;;
40252;SDS011;25972;51.854;4.534;2022-11-20T02:49:34;16.00;;;7.23;;
40252;SDS011;25972;51.854;4.534;2022-11-20T02:51:59;15.10;;;6.27;;
40252;SDS011;25972;51.854;4.534;2022-11-20T02:54:25;18.77;;;8.20;;
40252;SDS011;25972;51.854;4.534;2022-11-20T02:56:51;20.40;;;8.13;;
40252;SDS011;25972;51.854;4.534;2022-11-20T02:59:17;16.57;;;6.90;;
40252;SDS011;25972;51.854;4.534;2022-11-20T03:01:43;17.60;;;7.03;;
40252;SDS011;25972;51.854;4.534;2022-11-20T03:04:08;19.27;;;6.80;;
40252;SDS011;25972;51.854;4.534;2022-11-20T03:06:34;15.77;;;6.73;;
40252;SDS011;25972;51.854;4.534;2022-11-20T03:09:00;13.77;;;6.10;;
40252;SDS011;25972;51.854;4.534;2022-11-20T03:11:26;16.90;;;6.87;;
40252;SDS011;25972;51.854;4.534;2022-11-20T03:13:52;13.83;;;6.40;;
40252;SDS011;25972;51.854;4.534;2022-11-20T03:16:19;18.67;;;7.67;;
40252;SDS011;25972;51.854;4.534;2022-11-20T03:18:47;16.90;;;6.83;;
40252;SDS011;25972;51.854;4.534;2022-11-20T03:21:13;15.37;;;6.60;;
40252;SDS011;25972;51.854;4.534;2022-11-20T03:23:40;16.13;;;7.37;;
40252;SDS011;25972;51.854;4.534;2022-11-20T03:26:10;16.93;;;7.63;;
40252;SDS011;25972;51.854;4.534;2022-11-20T03:28:39;13.27;;;6.35;;
40252;SDS011;25972;51.854;4.534;2022-11-20T03:31:09;13.10;;;6.57;;
40252;SDS011;25972;51.854;4.534;2022-11-20T03:33:39;20.07;;;7.27;;
40252;SDS011;25972;51.854;4.534;2022-11-20T03:36:07;17.77;;;7.60;;
40252;SDS011;25972;51.854;4.534;2022-11-20T03:38:35;17.50;;;6.87;;
40252;SDS011;25972;51.854;4.534;2022-11-20T03:41:02;15.53;;;6.67;;
40252;SDS011;25972;51.854;4.534;2022-11-20T03:43:49;13.83;;;6.53;;
40252;SDS011;25972;51.854;4.534;2022-11-20T03:46:16;16.10;;;6.77;;
40252;SDS011;25972;51.854;4.534;2022-11-20T03:48:42;18.20;;;7.47;;
40252;SDS011;25972;51.854;4.534;2022-11-20T03:53:38;17.83;;;7.67;;
40252;SDS011;25972;51.854;4.534;2022-11-20T03:56:05;15.70;;;7.33;;
40252;SDS011;25972;51.854;4.534;2022-11-20T03:58:32;15.97;;;6.80;;
40252;SDS011;25972;51.854;4.534;2022-11-20T04:01:03;17.10;;;6.97;;
40252;SDS011;25972;51.854;4.534;2022-11-20T04:03:34;17.23;;;7.80;;
40252;SDS011;25972;51.854;4.534;2022-11-20T04:06:04;15.33;;;6.80;;
40252;SDS011;25972;51.854;4.534;2022-11-20T04:08:31;14.40;;;6.90;;
40252;SDS011;25972;51.854;4.534;2022-11-20T04:10:57;17.23;;;6.93;;
40252;SDS011;25972;51.854;4.534;2022-11-20T04:13:37;14.13;;;6.10;;
40252;SDS011;25972;51.854;4.534;2022-11-20T04:16:04;14.20;;;6.57;;
40252;SDS011;25972;51.854;4.534;2022-11-20T04:18:30;15.87;;;6.77;;
40252;SDS011;25972;51.854;4.534;2022-11-20T04:20:57;17.57;;;7.53;;
40252;SDS011;25972;51.854;4.534;2022-11-20T04:23:23;15.03;;;6.67;;
40252;SDS011;25972;51.854;4.534;2022-11-20T04:25:49;16.80;;;7.47;;
40252;SDS011;25972;51.854;4.534;2022-11-20T04:28:15;19.60;;;8.80;;
40252;SDS011;25972;51.854;4.534;2022-11-20T04:30:42;21.17;;;8.20;;
40252;SDS011;25972;51.854;4.534;2022-11-20T04:33:08;20.90;;;8.23;;
40252;SDS011;25972;51.854;4.534;2022-11-20T04:35:34;17.50;;;7.50;;
40252;SDS011;25972;51.854;4.534;2022-11-20T04:38:00;17.97;;;7.93;;
40252;SDS011;25972;51.854;4.534;2022-11-20T04:40:27;20.13;;;7.60;;
40252;SDS011;25972;51.854;4.534;2022-11-20T04:42:53;18.83;;;8.10;;
40252;SDS011;25972;51.854;4.534;2022-11-20T04:45:19;17.27;;;7.33;;
40252;SDS011;25972;51.854;4.534;2022-11-20T04:47:45;15.90;;;6.60;;
40252;SDS011;25972;51.854;4.534;2022-11-20T04:50:11;15.57;;;6.87;;
40252;SDS011;25972;51.854;4.534;2022-11-20T04:52:37;15.40;;;6.60;;
40252;SDS011;25972;51.854;4.534;2022-11-20T04:55:03;17.17;;;7.47;;
40252;SDS011;25972;51.854;4.534;2022-11-20T04:57:29;18.77;;;7.33;;
40252;SDS011;25972;51.854;4.534;2022-11-20T04:59:55;17.03;;;7.67;;
40252;SDS011;25972;51.854;4.534;2022-11-20T05:02:20;18.57;;;7.53;;
40252;SDS011;25972;51.854;4.534;2022-11-20T05:04:46;18.30;;;7.97;;
40252;SDS011;25972;51.854;4.534;2022-11-20T05:07:12;18.63;;;7.87;;
40252;SDS011;25972;51.854;4.534;2022-11-20T05:09:38;17.60;;;7.87;;
40252;SDS011;25972;51.854;4.534;2022-11-20T05:12:04;15.93;;;6.83;;
40252;SDS011;25972;51.854;4.534;2022-11-20T05:14:32;19.40;;;7.30;;
40252;SDS011;25972;51.854;4.534;2022-11-20T05:16:57;18.27;;;7.77;;
40252;SDS011;25972;51.854;4.534;2022-11-20T05:19:23;16.40;;;7.27;;
40252;SDS011;25972;51.854;4.534;2022-11-20T05:21:49;14.13;;;6.80;;
40252;SDS011;25972;51.854;4.534;2022-11-20T05:24:14;16.97;;;6.93;;
40252;SDS011;25972;51.854;4.534;2022-11-20T05:26:40;18.30;;;7.13;;
40252;SDS011;25972;51.854;4.534;2022-11-20T05:29:06;17.23;;;6.57;;
40252;SDS011;25972;51.854;4.534;2022-11-20T05:31:34;16.07;;;7.03;;
40252;SDS011;25972;51.854;4.534;2022-11-20T05:34:01;17.00;;;6.67;;
40252;SDS011;25972;51.854;4.534;2022-11-20T05:36:26;20.43;;;6.97;;
40252;SDS011;25972;51.854;4.534;2022-11-20T05:38:52;15.33;;;7.33;;
40252;SDS011;25972;51.854;4.534;2022-11-20T05:41:19;15.80;;;6.80;;
40252;SDS011;25972;51.854;4.534;2022-11-20T05:43:46;17.63;;;7.03;;
40252;SDS011;25972;51.854;4.534;2022-11-20T05:46:14;16.33;;;6.77;;
40252;SDS011;25972;51.854;4.534;2022-11-20T05:48:42;15.00;;;6.00;;
40252;SDS011;25972;51.854;4.534;2022-11-20T05:51:10;16.47;;;6.93;;
40252;SDS011;25972;51.854;4.534;2022-11-20T05:53:37;14.53;;;7.07;;
40252;SDS011;25972;51.854;4.534;2022-11-20T05:56:04;13.13;;;5.73;;
40252;SDS011;25972;51.854;4.534;2022-11-20T05:58:41;20.30;;;8.77;;
40252;SDS011;25972;51.854;4.534;2022-11-20T06:03:39;18.67;;;7.57;;
40252;SDS011;25972;51.854;4.534;2022-11-20T06:06:07;19.53;;;8.03;;
40252;SDS011;25972;51.854;4.534;2022-11-20T06:08:33;22.23;;;9.90;;
40252;SDS011;25972;51.854;4.534;2022-11-20T06:11:03;18.60;;;8.37;;
40252;SDS011;25972;51.854;4.534;2022-11-20T06:13:30;21.00;;;8.47;;
40252;SDS011;25972;51.854;4.534;2022-11-20T06:15:55;16.33;;;7.67;;
40252;SDS011;25972;51.854;4.534;2022-11-20T06:18:21;20.57;;;9.13;;
40252;SDS011;25972;51.854;4.534;2022-11-20T06:20:47;21.57;;;8.87;;
40252;SDS011;25972;51.854;4.534;2022-11-20T06:23:13;15.63;;;7.20;;
40252;SDS011;25972;51.854;4.534;2022-11-20T06:25:39;21.67;;;9.40;;
40252;SDS011;25972;51.854;4.534;2022-11-20T06:28:06;18.83;;;7.90;;
40252;SDS011;25972;51.854;4.534;2022-11-20T06:30:34;16.23;;;7.23;;
40252;SDS011;25972;51.854;4.534;2022-11-20T06:33:00;19.70;;;8.83;;
40252;SDS011;25972;51.854;4.534;2022-11-20T06:35:26;20.57;;;8.77;;
40252;SDS011;25972;51.854;4.534;2022-11-20T06:37:52;20.37;;;8.90;;
40252;SDS011;25972;51.854;4.534;2022-11-20T06:40:18;18.93;;;8.83;;
40252;SDS011;25972;51.854;4.534;2022-11-20T06:42:44;21.00;;;9.00;;
40252;SDS011;25972;51.854;4.534;2022-11-20T06:45:10;21.93;;;11.33;;
40252;SDS011;25972;51.854;4.534;2022-11-20T06:47:36;21.87;;;10.80;;
40252;SDS011;25972;51.854;4.534;2022-11-20T06:50:03;21.10;;;9.47;;
40252;SDS011;25972;51.854;4.534;2022-11-20T06:52:30;21.20;;;8.93;;
40252;SDS011;25972;51.854;4.534;2022-11-20T06:54:55;20.07;;;8.80;;
40252;SDS011;25972;51.854;4.534;2022-11-20T06:57:21;17.10;;;7.33;;
40252;SDS011;25972;51.854;4.534;2022-11-20T06:59:47;18.90;;;7.77;;
40252;SDS011;25972;51.854;4.534;2022-11-20T07:02:12;18.67;;;7.83;;
40252;SDS011;25972;51.854;4.534;2022-11-20T07:04:38;22.30;;;9.50;;
40252;SDS011;25972;51.854;4.534;2022-11-20T07:07:04;16.20;;;7.87;;
40252;SDS011;25972;51.854;4.534;2022-11-20T07:09:31;20.07;;;8.53;;
40252;SDS011;25972;51.854;4.534;2022-11-20T07:11:57;16.67;;;7.53;;
40252;SDS011;25972;51.854;4.534;2022-11-20T07:14:23;18.27;;;8.90;;
40252;SDS011;25972;51.854;4.534;2022-11-20T07:16:49;21.20;;;9.03;;
40252;SDS011;25972;51.854;4.534;2022-11-20T07:19:15;25.57;;;11.07;;
40252;SDS011;25972;51.854;4.534;2022-11-20T07:21:41;26.50;;;12.40;;
40252;SDS011;25972;51.854;4.534;2022-11-20T07:24:07;26.40;;;11.13;;
40252;SDS011;25972;51.854;4.534;2022-11-20T07:26:33;35.77;;;13.27;;
40252;SDS011;25972;51.854;4.534;2022-11-20T07:28:59;26.23;;;8.87;;
40252;SDS011;25972;51.854;4.534;2022-11-20T07:31:24;27.13;;;12.50;;
40252;SDS011;25972;51.854;4.534;2022-11-20T07:33:50;18.73;;;8.87;;
40252;SDS011;25972;51.854;4.534;2022-11-20T07:36:16;23.30;;;9.27;;
40252;SDS011;25972;51.854;4.534;2022-11-20T07:38:42;15.87;;;7.57;;
40252;SDS011;25972;51.854;4.534;2022-11-20T07:41:07;21.13;;;9.03;;
40252;SDS011;25972;51.854;4.534;2022-11-20T07:43:34;20.50;;;9.27;;
40252;SDS011;25972;51.854;4.534;2022-11-20T07:46:00;19.43;;;9.77;;
40252;SDS011;25972;51.854;4.534;2022-11-20T07:48:26;22.17;;;9.60;;
40252;SDS011;25972;51.854;4.534;2022-11-20T07:50:55;23.93;;;11.47;;
40252;SDS011;25972;51.854;4.534;2022-11-20T07:53:22;23.30;;;11.07;;
40252;SDS011;25972;51.854;4.534;2022-11-20T07:55:50;26.63;;;11.50;;
40252;SDS011;25972;51.854;4.534;2022-11-20T07:58:19;24.57;;;11.47;;
40252;SDS011;25972;51.854;4.534;2022-11-20T08:00:45;23.47;;;10.77;;
40252;SDS011;25972;51.854;4.534;2022-11-20T08:03:12;23.70;;;10.80;;
40252;SDS011;25972;51.854;4.534;2022-11-20T08:05:38;32.27;;;15.67;;
40252;SDS011;25972;51.854;4.534;2022-11-20T08:08:03;21.13;;;10.07;;
40252;SDS011;25972;51.854;4.534;2022-11-20T08:10:29;25.47;;;11.33;;
40252;SDS011;25972;51.854;4.534;2022-11-20T08:12:55;23.60;;;10.27;;
40252;SDS011;25972;51.854;4.534;2022-11-20T08:15:40;24.27;;;9.80;;
40252;SDS011;25972;51.854;4.534;2022-11-20T08:18:06;22.67;;;10.00;;
40252;SDS011;25972;51.854;4.534;2022-11-20T08:20:36;20.43;;;9.70;;
40252;SDS011;25972;51.854;4.534;2022-11-20T08:23:06;23.93;;;10.17;;
40252;SDS011;25972;51.854;4.534;2022-11-20T08:25:33;19.90;;;9.43;;
40252;SDS011;25972;51.854;4.534;2022-11-20T08:28:01;23.97;;;10.87;;
40252;SDS011;25972;51.854;4.534;2022-11-20T08:30:28;23.33;;;10.60;;
40252;SDS011;25972;51.854;4.534;2022-11-20T08:32:56;24.50;;;10.17;;
40252;SDS011;25972;51.854;4.534;2022-11-20T08:35:36;24.17;;;10.77;;
40252;SDS011;25972;51.854;4.534;2022-11-20T08:38:03;28.90;;;11.43;;
40252;SDS011;25972;51.854;4.534;2022-11-20T08:40:30;23.87;;;10.13;;
40252;SDS011;25972;51.854;4.534;2022-11-20T08:42:56;21.73;;;8.97;;
40252;SDS011;25972;51.854;4.534;2022-11-20T08:45:22;24.33;;;12.20;;
40252;SDS011;25972;51.854;4.534;2022-11-20T08:47:48;21.87;;;9.10;;
40252;SDS011;25972;51.854;4.534;2022-11-20T08:50:14;25.67;;;11.93;;
40252;SDS011;25972;51.854;4.534;2022-11-20T08:52:41;23.47;;;10.50;;
40252;SDS011;25972;51.854;4.534;2022-11-20T08:55:07;24.33;;;11.07;;
40252;SDS011;25972;51.854;4.534;2022-11-20T08:57:34;25.93;;;11.47;;
40252;SDS011;25972;51.854;4.534;2022-11-20T09:00:02;27.80;;;12.00;;
40252;SDS011;25972;51.854;4.534;2022-11-20T09:02:30;35.93;;;13.87;;
40252;SDS011;25972;51.854;4.534;2022-11-20T09:04:57;25.33;;;11.43;;
40252;SDS011;25972;51.854;4.534;2022-11-20T09:07:23;28.27;;;13.30;;
40252;SDS011;25972;51.854;4.534;2022-11-20T09:09:49;25.80;;;11.85;;
40252;SDS011;25972;51.854;4.534;2022-11-20T09:12:15;30.37;;;14.50;;
40252;SDS011;25972;51.854;4.534;2022-11-20T09:14:41;30.23;;;14.40;;
40252;SDS011;25972;51.854;4.534;2022-11-20T09:17:07;30.20;;;13.65;;
40252;SDS011;25972;51.854;4.534;2022-11-20T09:19:34;29.53;;;13.33;;
40252;SDS011;25972;51.854;4.534;2022-11-20T09:22:00;32.53;;;15.57;;
40252;SDS011;25972;51.854;4.534;2022-11-20T09:24:26;29.60;;;15.03;;
40252;SDS011;25972;51.854;4.534;2022-11-20T09:26:53;28.55;;;14.32;;
40252;SDS011;25972;51.854;4.534;2022-11-20T09:29:18;20.70;;;9.70;;
40252;SDS011;25972;51.854;4.534;2022-11-20T09:31:44;19.35;;;8.38;;
40252;SDS011;25972;51.854;4.534;2022-11-20T09:34:10;31.20;;;14.40;;
40252;SDS011;25972;51.854;4.534;2022-11-20T09:36:36;24.98;;;12.05;;
40252;SDS011;25972;51.854;4.534;2022-11-20T09:39:02;29.43;;;13.80;;
40252;SDS011;25972;51.854;4.534;2022-11-20T09:47:41;28.13;;;10.45;;
40252;SDS011;25972;51.854;4.534;2022-11-20T09:55:47;26.00;;;10.68;;
40252;SDS011;25972;51.854;4.534;2022-11-20T10:01:33;25.70;;;12.93;;
40252;SDS011;25972;51.854;4.534;2022-11-20T10:04:00;20.23;;;9.53;;
40252;SDS011;25972;51.854;4.534;2022-11-20T10:06:33;33.83;;;15.98;;
40252;SDS011;25972;51.854;4.534;2022-11-20T10:09:29;26.75;;;11.38;;
40252;SDS011;25972;51.854;4.534;2022-11-20T10:14:55;32.70;;;15.30;;
40252;SDS011;25972;51.854;4.534;2022-11-20T10:23:48;29.63;;;13.17;;
40252;SDS011;25972;51.854;4.534;2022-11-20T10:31:26;31.05;;;14.38;;
40252;SDS011;25972;51.854;4.534;2022-11-20T10:34:03;24.58;;;10.98;;
40252;SDS011;25972;51.854;4.534;2022-11-20T10:39:27;30.75;;;14.43;;
40252;SDS011;25972;51.854;4.534;2022-11-20T10:42:04;34.22;;;14.70;;
40252;SDS011;25972;51.854;4.534;2022-11-20T10:44:36;29.27;;;13.55;;
40252;SDS011;25972;51.854;4.534;2022-11-20T10:47:24;27.00;;;11.90;;
40252;SDS011;25972;51.854;4.534;2022-11-20T10:49:53;29.98;;;13.05;;
40252;SDS011;25972;51.854;4.534;2022-11-20T10:58:13;26.58;;;11.18;;
40252;SDS011;25972;51.854;4.534;2022-11-20T11:00:45;38.53;;;17.38;;
40252;SDS011;25972;51.854;4.534;2022-11-20T11:03:22;36.95;;;16.48;;
40252;SDS011;25972;51.854;4.534;2022-11-20T11:06:14;31.02;;;12.27;;
40252;SDS011;25972;51.854;4.534;2022-11-20T11:08:41;34.97;;;14.70;;
40252;SDS011;25972;51.854;4.534;2022-11-20T11:11:29;31.45;;;13.80;;
40252;SDS011;25972;51.854;4.534;2022-11-20T11:14:07;47.85;;;20.88;;
40252;SDS011;25972;51.854;4.534;2022-11-20T11:19:16;31.17;;;12.48;;
40252;SDS011;25972;51.854;4.534;2022-11-20T11:21:52;40.38;;;16.65;;
40252;SDS011;25972;51.854;4.534;2022-11-20T11:24:24;35.35;;;17.38;;
40252;SDS011;25972;51.854;4.534;2022-11-20T11:26:58;35.10;;;16.13;;
40252;SDS011;25972;51.854;4.534;2022-11-20T11:29:30;48.83;;;19.60;;
40252;SDS011;25972;51.854;4.534;2022-11-20T11:32:06;39.05;;;17.67;;
40252;SDS011;25972;51.854;4.534;2022-11-20T11:34:33;34.58;;;14.48;;
40252;SDS011;25972;51.854;4.534;2022-11-20T11:37:00;34.08;;;15.85;;
40252;SDS011;25972;51.854;4.534;2022-11-20T11:39:28;43.03;;;17.83;;
40252;SDS011;25972;51.854;4.534;2022-11-20T11:41:55;23.58;;;10.60;;
40252;SDS011;25972;51.854;4.534;2022-11-20T11:44:24;41.45;;;17.42;;
40252;SDS011;25972;51.854;4.534;2022-11-20T11:47:25;40.80;;;17.73;;
40252;SDS011;25972;51.854;4.534;2022-11-20T11:52:42;37.92;;;15.95;;
40252;SDS011;25972;51.854;4.534;2022-11-20T11:57:52;41.53;;;18.15;;
40252;SDS011;25972;51.854;4.534;2022-11-20T12:00:25;39.95;;;17.95;;
40252;SDS011;25972;51.854;4.534;2022-11-20T12:03:06;38.65;;;17.02;;
40252;SDS011;25972;51.854;4.534;2022-11-20T12:05:48;28.45;;;11.68;;
40252;SDS011;25972;51.854;4.534;2022-11-20T12:11:30;68.18;;;15.05;;
40252;SDS011;25972;51.854;4.534;2022-11-20T12:16:40;37.83;;;15.10;;
40252;SDS011;25972;51.854;4.534;2022-11-20T12:19:13;31.20;;;14.60;;
40252;SDS011;25972;51.854;4.534;2022-11-20T12:41:57;46.33;;;20.95;;
40252;SDS011;25972;51.854;4.534;2022-11-20T12:44:33;45.00;;;21.10;;
40252;SDS011;25972;51.854;4.534;2022-11-20T12:47:44;31.95;;;16.23;;
40252;SDS011;25972;51.854;4.534;2022-11-20T12:50:41;39.90;;;16.85;;
40252;SDS011;25972;51.854;4.534;2022-11-20T12:58:43;31.98;;;14.85;;
40252;SDS011;25972;51.854;4.534;2022-11-20T13:04:47;43.08;;;19.52;;
40252;SDS011;25972;51.854;4.534;2022-11-20T13:07:13;19.98;;;8.73;;
40252;SDS011;25972;51.854;4.534;2022-11-20T13:09:45;49.25;;;18.23;;
40252;SDS011;25972;51.854;4.534;2022-11-20T13:17:24;38.95;;;17.42;;
40252;SDS011;25972;51.854;4.534;2022-11-20T13:20:14;30.52;;;14.27;;
40252;SDS011;25972;51.854;4.534;2022-11-20T13:22:50;39.70;;;16.27;;
40252;SDS011;25972;51.854;4.534;2022-11-20T13:27:56;29.95;;;11.23;;
40252;SDS011;25972;51.854;4.534;2022-11-20T13:30:27;41.78;;;16.33;;
40252;SDS011;25972;51.854;4.534;2022-11-20T13:32:54;41.65;;;18.30;;
40252;SDS011;25972;51.854;4.534;2022-11-20T13:38:01;32.78;;;14.57;;
40252;SDS011;25972;51.854;4.534;2022-11-20T13:40:49;46.22;;;18.70;;
40252;SDS011;25972;51.854;4.534;2022-11-20T13:43:23;51.50;;;19.38;;
40252;SDS011;25972;51.854;4.534;2022-11-20T13:46:06;29.75;;;10.60;;
40252;SDS011;25972;51.854;4.534;2022-11-20T13:48:34;39.05;;;16.13;;
40252;SDS011;25972;51.854;4.534;2022-11-20T14:02:18;37.83;;;16.27;;
40252;SDS011;25972;51.854;4.534;2022-11-20T14:04:48;52.00;;;20.83;;
40252;SDS011;25972;51.854;4.534;2022-11-20T14:07:16;45.95;;;19.33;;
40252;SDS011;25972;51.854;4.534;2022-11-20T14:09:50;60.22;;;23.52;;
40252;SDS011;25972;51.854;4.534;2022-11-20T14:12:19;50.67;;;21.48;;
40252;SDS011;25972;51.854;4.534;2022-11-20T14:14:48;61.92;;;23.17;;
40252;SDS011;25972;51.854;4.534;2022-11-20T14:19:54;59.45;;;24.17;;
40252;SDS011;25972;51.854;4.534;2022-11-20T14:22:25;59.03;;;27.13;;
40252;SDS011;25972;51.854;4.534;2022-11-20T14:25:06;67.82;;;28.10;;
40252;SDS011;25972;51.854;4.534;2022-11-20T14:27:38;45.97;;;17.73;;
40252;SDS011;25972;51.854;4.534;2022-11-20T14:30:12;77.25;;;30.00;;
40252;SDS011;25972;51.854;4.534;2022-11-20T14:32:38;49.70;;;22.10;;
40252;SDS011;25972;51.854;4.534;2022-11-20T14:35:09;53.13;;;21.35;;
40252;SDS011;25972;51.854;4.534;2022-11-20T14:37:44;40.17;;;17.63;;
40252;SDS011;25972;51.854;4.534;2022-11-20T14:42:49;55.55;;;20.60;;
40252;SDS011;25972;51.854;4.534;2022-11-20T14:45:15;64.50;;;23.90;;
40252;SDS011;25972;51.854;4.534;2022-11-20T14:47:42;54.28;;;19.30;;
40252;SDS011;25972;51.854;4.534;2022-11-20T14:50:29;42.33;;;16.17;;
40252;SDS011;25972;51.854;4.534;2022-11-20T14:52:55;15.98;;;8.18;;
40252;SDS011;25972;51.854;4.534;2022-11-20T14:55:30;16.55;;;7.70;;
40252;SDS011;25972;51.854;4.534;2022-11-20T15:01:00;79.40;;;34.22;;
40252;SDS011;25972;51.854;4.534;2022-11-20T15:03:34;51.80;;;21.38;;
40252;SDS011;25972;51.854;4.534;2022-11-20T15:06:02;46.78;;;18.05;;
40252;SDS011;25972;51.854;4.534;2022-11-20T15:08:28;47.45;;;20.40;;
40252;SDS011;25972;51.854;4.534;2022-11-20T15:10:54;25.13;;;11.43;;
40252;SDS011;25972;51.854;4.534;2022-11-20T15:13:31;41.85;;;18.00;;
40252;SDS011;25972;51.854;4.534;2022-11-20T15:15:58;37.47;;;17.33;;
40252;SDS011;25972;51.854;4.534;2022-11-20T15:18:28;59.90;;;24.40;;
40252;SDS011;25972;51.854;4.534;2022-11-20T15:21:02;41.47;;;18.92;;
40252;SDS011;25972;51.854;4.534;2022-11-20T15:23:34;41.83;;;18.63;;
40252;SDS011;25972;51.854;4.534;2022-11-20T15:26:00;22.02;;;8.18;;
40252;SDS011;25972;51.854;4.534;2022-11-20T15:31:04;28.42;;;13.95;;
40252;SDS011;25972;51.854;4.534;2022-11-20T15:33:31;30.63;;;14.15;;
40252;SDS011;25972;51.854;4.534;2022-11-20T15:35:58;38.20;;;15.55;;
40252;SDS011;25972;51.854;4.534;2022-11-20T15:38:24;39.88;;;16.98;;
40252;SDS011;25972;51.854;4.534;2022-11-20T15:40:50;35.35;;;14.57;;
40252;SDS011;25972;51.854;4.534;2022-11-20T15:43:15;37.70;;;14.48;;
40252;SDS011;25972;51.854;4.534;2022-11-20T15:45:42;32.10;;;14.32;;
40252;SDS011;25972;51.854;4.534;2022-11-20T15:48:16;42.70;;;17.75;;
40252;SDS011;25972;51.854;4.534;2022-11-20T15:53:26;33.70;;;12.65;;
40252;SDS011;25972;51.854;4.534;2022-11-20T15:55:52;31.40;;;11.27;;
40252;SDS011;25972;51.854;4.534;2022-11-20T15:58:18;35.95;;;13.38;;
40252;SDS011;25972;51.854;4.534;2022-11-20T16:00:44;23.95;;;9.82;;
40252;SDS011;25972;51.854;4.534;2022-11-20T16:03:11;39.42;;;17.52;;
40252;SDS011;25972;51.854;4.534;2022-11-20T16:05:37;45.53;;;18.95;;
40252;SDS011;25972;51.854;4.534;2022-11-20T16:08:04;25.05;;;10.52;;
40252;SDS011;25972;51.854;4.534;2022-11-20T16:10:29;49.05;;;19.33;;
40252;SDS011;25972;51.854;4.534;2022-11-20T16:12:55;50.47;;;19.85;;
40252;SDS011;25972;51.854;4.534;2022-11-20T16:15:39;38.03;;;15.00;;
40252;SDS011;25972;51.854;4.534;2022-11-20T16:18:12;37.92;;;16.23;;
40252;SDS011;25972;51.854;4.534;2022-11-20T16:20:43;34.85;;;14.35;;
40252;SDS011;25972;51.854;4.534;2022-11-20T16:23:10;41.15;;;16.80;;
40252;SDS011;25972;51.854;4.534;2022-11-20T16:25:36;36.63;;;14.45;;
40252;SDS011;25972;51.854;4.534;2022-11-20T16:28:02;33.10;;;12.82;;
40252;SDS011;25972;51.854;4.534;2022-11-20T16:30:28;34.58;;;13.40;;
40252;SDS011;25972;51.854;4.534;2022-11-20T16:32:55;35.03;;;13.75;;
40252;SDS011;25972;51.854;4.534;2022-11-20T16:35:21;32.22;;;12.82;;
40252;SDS011;25972;51.854;4.534;2022-11-20T16:37:47;35.38;;;14.88;;
40252;SDS011;25972;51.854;4.534;2022-11-20T16:40:13;32.90;;;12.57;;
40252;SDS011;25972;51.854;4.534;2022-11-20T16:42:38;34.47;;;14.25;;
40252;SDS011;25972;51.854;4.534;2022-11-20T16:45:05;31.13;;;14.20;;
40252;SDS011;25972;51.854;4.534;2022-11-20T16:47:34;30.35;;;12.07;;